Time;durP1;ratioP1;P1;durP2;ratioP2;P2;SDS_P1;SDS_P2;PMS_P1;PMS_P2;Temp;Humidity;BMP_temperature;BMP_pressure;BME280_temperature;BME280_humidity;BME280_pressure;Samples;Min_cycle;Max_cycle;Signal;HPM_P1;HPM_P2
2022/06/23 00:02:24;;;;;;;;;;;22.70;55.90;;;;;;5131925;28;19914;-69
2022/06/23 00:04:51;;;;;;;;;;;22.70;54.60;;;;;;5131959;28;20269;-69
2022/06/23 00:07:24;;;;;;;;;;;22.70;54.70;;;;;;5132230;28;20007;-69
2022/06/23 00:09:51;;;;;;;;;;;22.60;54.80;;;;;;5113281;28;19915;-69
2022/06/23 00:12:31;;;;;;;;;;;22.60;55.50;;;;;;5113198;28;19998;-69
2022/06/23 00:15:03;;;;;;;;;;;22.50;56.60;;;;;;5131326;28;19981;-70
2022/06/23 00:17:33;;;;;;;;;;;22.50;54.70;;;;;;5131496;28;19994;-69
2022/06/23 00:20:00;;;;;;;;;;;22.50;55.10;;;;;;5131909;28;19908;-69
2022/06/23 00:22:27;;;;;;;;;;;22.40;56.60;;;;;;5113037;28;20029;-69
2022/06/23 00:24:56;;;;;;;;;;;22.40;55.30;;;;;;5131537;28;19908;-67
2022/06/23 00:27:25;;;;;;;;;;;22.40;56.90;;;;;;5131348;28;19913;-69
2022/06/23 00:29:51;;;;;;;;;;;22.50;57.20;;;;;;5113011;28;20377;-68
2022/06/23 00:32:17;;;;;;;;;;;22.40;57.20;;;;;;5112947;28;19926;-69
2022/06/23 00:34:57;;;;;;;;;;;22.40;56.90;;;;;;5131372;28;19914;-69
2022/06/23 00:37:23;;;;;;;;;;;22.40;56.10;;;;;;5131088;28;19908;-69
2022/06/23 00:39:59;;;;;;;;;;;22.40;56.50;;;;;;5125636;28;19915;-69
2022/06/23 00:42:30;;;;;;;;;;;22.40;57.90;;;;;;5099673;28;20002;-70
2022/06/23 00:45:06;;;;;;;;;;;22.40;55.80;;;;;;5117548;28;19908;-69
2022/06/23 00:47:36;;;;;;;;;;;22.50;57.40;;;;;;5117556;28;20273;-69
2022/06/23 00:50:14;;;;;;;;;;;22.50;57.20;;;;;;5117875;28;20399;-70
2022/06/23 00:52:42;;;;;;;;;;;22.40;56.60;;;;;;5117580;28;19908;-70
2022/06/23 00:55:11;;;;;;;;;;;22.40;57.00;;;;;;5117373;28;19908;-70
2022/06/23 00:57:41;;;;;;;;;;;22.40;56.30;;;;;;5117410;28;19912;-70
2022/06/23 01:00:12;;;;;;;;;;;22.40;56.00;;;;;;5116834;28;20400;-68
2022/06/23 01:02:44;;;;;;;;;;;22.40;57.40;;;;;;5116397;28;19908;-70
2022/06/23 01:05:16;;;;;;;;;;;22.40;58.90;;;;;;5098887;28;19994;-70
2022/06/23 01:08:01;;;;;;;;;;;22.40;57.00;;;;;;5117256;28;19908;-70
2022/06/23 01:10:45;;;;;;;;;;;22.40;58.10;;;;;;5116910;28;19912;-70
2022/06/23 01:13:23;;;;;;;;;;;22.40;57.20;;;;;;5116929;28;19907;-68
2022/06/23 01:15:51;;;;;;;;;;;22.40;56.60;;;;;;5117198;28;19908;-68
2022/06/23 01:18:17;;;;;;;;;;;22.40;58.20;;;;;;5099077;28;20280;-68
2022/06/23 01:20:51;;;;;;;;;;;22.40;58.00;;;;;;5116524;28;19998;-68
2022/06/23 01:23:35;;;;;;;;;;;22.30;57.20;;;;;;5116728;28;19920;-69
2022/06/23 01:26:11;;;;;;;;;;;22.30;58.70;;;;;;5116797;28;19914;-69
2022/06/23 01:28:40;;;;;;;;;;;22.30;58.30;;;;;;5116874;28;19919;-74
2022/06/23 01:31:15;;;;;;;;;;;22.30;58.00;;;;;;5116871;28;19912;-74
2022/06/23 01:33:48;;;;;;;;;;;22.30;57.40;;;;;;5115994;28;20426;-74
2022/06/23 01:36:31;;;;;;;;;;;22.30;57.30;;;;;;5116105;28;19973;-74
2022/06/23 01:39:04;;;;;;;;;;;22.30;57.40;;;;;;5116365;28;19912;-74
2022/06/23 01:41:42;;;;;;;;;;;22.30;57.10;;;;;;5116187;28;19908;-74
2022/06/23 01:44:13;;;;;;;;;;;22.30;57.70;;;;;;5116385;28;19954;-72
2022/06/23 01:46:40;;;;;;;;;;;22.20;57.30;;;;;;5116039;28;19918;-74
2022/06/23 01:49:17;;;;;;;;;;;22.20;57.60;;;;;;5116317;28;19912;-74
2022/06/23 01:51:51;;;;;;;;;;;22.10;57.10;;;;;;5114994;28;19911;-74
2022/06/23 01:54:19;;;;;;;;;;;22.10;57.90;;;;;;5115867;28;19907;-74
2022/06/23 01:56:51;;;;;;;;;;;22.10;57.40;;;;;;5114969;28;20456;-74
2022/06/23 01:59:31;;;;;;;;;;;22.00;57.30;;;;;;5098044;28;20311;-74
2022/06/23 02:02:19;;;;;;;;;;;22.00;57.40;;;;;;5115722;28;20381;-74
2022/06/23 02:04:54;;;;;;;;;;;22.00;57.20;;;;;;5097565;28;19918;-74
2022/06/23 02:07:24;;;;;;;;;;;22.00;57.40;;;;;;5115787;28;19985;-74
2022/06/23 02:09:52;;;;;;;;;;;22.00;57.70;;;;;;5115592;28;19912;-74
2022/06/23 02:12:25;;;;;;;;;;;21.90;58.00;;;;;;5115558;28;19937;-74
2022/06/23 02:14:58;;;;;;;;;;;21.90;57.40;;;;;;5115502;28;19947;-74
2022/06/23 02:17:27;;;;;;;;;;;21.90;57.60;;;;;;5115755;28;19908;-74
2022/06/23 02:19:54;;;;;;;;;;;21.90;57.70;;;;;;5115404;28;19908;-74
2022/06/23 02:22:23;;;;;;;;;;;21.90;57.50;;;;;;5097191;28;20437;-74
2022/06/23 02:24:54;;;;;;;;;;;21.90;57.70;;;;;;5115100;28;19946;-74
2022/06/23 02:27:19;;;;;;;;;;;21.90;57.80;;;;;;5115354;28;19908;-75
2022/06/23 02:29:48;;;;;;;;;;;21.90;57.40;;;;;;5115070;28;19967;-74
2022/06/23 02:32:23;;;;;;;;;;;21.90;57.50;;;;;;5096900;28;20331;-74
2022/06/23 02:35:08;;;;;;;;;;;21.90;57.50;;;;;;5097023;28;19908;-74
2022/06/23 02:37:48;;;;;;;;;;;21.90;57.80;;;;;;5115667;28;19908;-75
2022/06/23 02:40:34;;;;;;;;;;;21.90;57.60;;;;;;5115094;28;19913;-75
2022/06/23 02:43:12;;;;;;;;;;;21.90;57.80;;;;;;5114604;28;19934;-75
2022/06/23 02:45:56;;;;;;;;;;;21.80;57.40;;;;;;5115027;28;19915;-75
2022/06/23 02:48:39;;;;;;;;;;;21.90;57.40;;;;;;5097061;28;20353;-75
2022/06/23 02:51:04;;;;;;;;;;;21.90;57.70;;;;;;5114603;28;19912;-75
2022/06/23 02:53:45;;;;;;;;;;;21.80;57.70;;;;;;5114794;28;20381;-74
2022/06/23 02:56:28;;;;;;;;;;;21.80;57.90;;;;;;5110453;28;19912;-74
2022/06/23 02:59:02;;;;;;;;;;;21.80;57.70;;;;;;5102618;28;20014;-75
2022/06/23 03:01:27;;;;;;;;;;;21.80;57.80;;;;;;5101820;28;19957;-73
2022/06/23 03:04:13;;;;;;;;;;;21.80;58.60;;;;;;5076066;28;19908;-74
2022/06/23 03:06:57;;;;;;;;;;;21.80;57.90;;;;;;5099275;28;19912;-74
2022/06/23 03:09:28;;;;;;;;;;;21.80;58.20;;;;;;5093912;28;20003;-74
2022/06/23 03:12:07;;;;;;;;;;;21.70;58.10;;;;;;5099100;28;19923;-75
2022/06/23 03:14:42;;;;;;;;;;;21.70;58.60;;;;;;5094136;28;20369;-74
2022/06/23 03:17:26;;;;;;;;;;;21.70;58.10;;;;;;5094566;28;19916;-75
2022/06/23 03:19:55;;;;;;;;;;;21.70;58.20;;;;;;5094349;28;20278;-75
2022/06/23 03:22:25;;;;;;;;;;;21.70;58.60;;;;;;5093865;28;20277;-75
2022/06/23 03:25:06;;;;;;;;;;;21.70;58.50;;;;;;5094182;28;19912;-75
2022/06/23 03:27:46;;;;;;;;;;;21.70;58.50;;;;;;5093834;28;19908;-74
2022/06/23 03:30:30;;;;;;;;;;;21.70;58.60;;;;;;5094257;28;19966;-76
2022/06/23 03:32:59;;;;;;;;;;;21.70;58.70;;;;;;5094314;28;19908;-75
2022/06/23 03:35:24;;;;;;;;;;;21.70;58.80;;;;;;5093827;28;19908;-74
2022/06/23 03:38:05;;;;;;;;;;;21.70;58.70;;;;;;5093819;28;20271;-74
2022/06/23 03:43:35;;;;;;;;;;;21.70;59.00;;;;;;5094462;28;20263;-75
2022/06/23 03:46:10;;;;;;;;;;;21.70;59.30;;;;;;5094140;28;19908;-74
2022/06/23 03:48:59;;;;;;;;;;;21.70;59.20;;;;;;5075635;28;19920;-75
2022/06/23 03:51:27;;;;;;;;;;;20.80;58.60;;;;;;5087569;28;19944;-75
2022/06/23 03:53:53;;;;;;;;;;;21.70;59.00;;;;;;5075897;28;19912;-78
2022/06/23 03:56:20;;;;;;;;;;;21.70;59.10;;;;;;5093531;28;19915;-75
2022/06/23 03:58:58;;;;;;;;;;;21.70;59.30;;;;;;5094495;28;19914;-75
2022/06/23 04:01:32;;;;;;;;;;;21.70;59.50;;;;;;5104520;28;20006;-75
2022/06/23 04:04:03;;;;;;;;;;;21.70;59.30;;;;;;5115107;28;19911;-75
2022/06/23 04:06:33;;;;;;;;;;;21.70;59.30;;;;;;5089488;28;20361;-75
2022/06/23 04:09:05;;;;;;;;;;;21.70;59.40;;;;;;5114057;28;19920;-75
2022/06/23 04:11:45;;;;;;;;;;;21.70;59.30;;;;;;5101048;28;19908;-74
2022/06/23 04:14:23;;;;;;;;;;;21.70;59.70;;;;;;5100972;28;19919;-75
2022/06/23 04:16:52;;;;;;;;;;;21.70;59.20;;;;;;5085729;28;20004;-74
2022/06/23 04:19:22;;;;;;;;;;;21.70;59.80;;;;;;5106973;28;19916;-73
2022/06/23 04:21:50;;;;;;;;;;;21.70;59.40;;;;;;5107494;28;19908;-75
2022/06/23 04:24:20;;;;;;;;;;;21.70;59.40;;;;;;5105252;28;19955;-75
2022/06/23 04:26:48;;;;;;;;;;;21.70;59.70;;;;;;5105650;28;19943;-75
2022/06/23 04:29:20;;;;;;;;;;;21.70;59.70;;;;;;5105499;28;19943;-75
2022/06/23 04:32:06;;;;;;;;;;;21.70;60.00;;;;;;5088058;28;20369;-76
2022/06/23 04:34:34;;;;;;;;;;;21.70;59.60;;;;;;5085352;28;19941;-77
2022/06/23 04:37:00;;;;;;;;;;;21.70;59.80;;;;;;5106544;28;19915;-75
2022/06/23 04:39:31;;;;;;;;;;;21.70;59.60;;;;;;5106621;28;19908;-74
2022/06/23 04:42:17;;;;;;;;;;;21.70;59.90;;;;;;5105240;28;19916;-74
2022/06/23 04:44:47;;;;;;;;;;;21.70;59.90;;;;;;5101222;28;19991;-76
2022/06/23 04:47:15;;;;;;;;;;;21.70;59.80;;;;;;5061257;28;19908;-73
2022/06/23 04:49:44;;;;;;;;;;;21.80;60.00;;;;;;5095906;28;19963;-72
2022/06/23 04:52:15;;;;;;;;;;;21.80;60.00;;;;;;5096992;28;20362;-75
2022/06/23 04:54:45;;;;;;;;;;;21.80;60.10;;;;;;5110313;28;19912;-76
2022/06/23 04:57:13;;;;;;;;;;;21.90;60.10;;;;;;5089015;28;19907;-75
2022/06/23 04:59:38;;;;;;;;;;;21.90;60.30;;;;;;5114308;28;19911;-75
2022/06/23 05:02:22;;;;;;;;;;;21.90;60.60;;;;;;5096170;28;19915;-75
2022/06/23 05:04:57;;;;;;;;;;;21.90;60.40;;;;;;5095994;28;19955;-74
2022/06/23 05:07:26;;;;;;;;;;;21.90;60.40;;;;;;5107057;28;19912;-75
2022/06/23 05:09:55;;;;;;;;;;;22.00;60.50;;;;;;5086428;28;20010;-75
2022/06/23 05:12:27;;;;;;;;;;;22.00;60.70;;;;;;5081004;28;19976;-74
2022/06/23 05:14:59;;;;;;;;;;;22.00;60.50;;;;;;5105709;28;19915;-74
2022/06/23 05:17:29;;;;;;;;;;;22.10;60.60;;;;;;5088205;28;19960;-75
2022/06/23 05:19:57;;;;;;;;;;;22.10;61.10;;;;;;5106872;28;19911;-76
2022/06/23 05:22:31;;;;;;;;;;;22.20;60.20;;;;;;5106989;28;19961;-78
2022/06/23 05:24:58;;;;;;;;;;;22.30;60.30;;;;;;5087355;28;20116;-74
2022/06/23 05:27:26;;;;;;;;;;;22.40;60.30;;;;;;5103931;28;19908;-75
2022/06/23 05:29:54;;;;;;;;;;;22.40;60.20;;;;;;5100814;28;19924;-73
2022/06/23 05:32:31;;;;;;;;;;;22.40;60.20;;;;;;5086832;28;19916;-76
2022/06/23 05:35:11;;;;;;;;;;;22.40;60.10;;;;;;5084920;28;19951;-76
2022/06/23 05:37:42;;;;;;;;;;;22.50;60.10;;;;;;5076705;28;20427;-74
2022/06/23 05:40:19;;;;;;;;;;;22.40;60.00;;;;;;5076601;28;19908;-81
2022/06/23 05:42:49;;;;;;;;;;;22.40;60.30;;;;;;5098459;28;20357;-80
2022/06/23 05:45:18;;;;;;;;;;;22.40;60.20;;;;;;5098137;28;19961;-85
2022/06/23 05:47:44;;;;;;;;;;;22.40;60.10;;;;;;5115849;28;19907;-84
2022/06/23 05:50:15;;;;;;;;;;;22.40;60.20;;;;;;5116118;28;19912;-81
2022/06/23 05:52:46;;;;;;;;;;;22.40;60.20;;;;;;5113371;28;19916;-82
2022/06/23 05:55:29;;;;;;;;;;;22.30;60.10;;;;;;5103321;28;19957;-81
2022/06/23 05:58:00;;;;;;;;;;;22.30;60.60;;;;;;5105073;28;19922;-82
2022/06/23 06:00:43;;;;;;;;;;;22.20;60.60;;;;;;5085877;28;20270;-83
2022/06/23 06:03:11;;;;;;;;;;;22.30;60.50;;;;;;5104950;28;19908;-82
2022/06/23 06:05:38;;;;;;;;;;;22.30;60.80;;;;;;5103564;28;19912;-82
2022/06/23 06:08:11;;;;;;;;;;;22.30;60.60;;;;;;5086736;28;19959;-82
2022/06/23 06:10:37;;;;;;;;;;;22.30;60.40;;;;;;5106163;28;19922;-82
2022/06/23 06:13:07;;;;;;;;;;;22.40;60.50;;;;;;5106249;28;19998;-81
2022/06/23 06:15:34;;;;;;;;;;;22.40;60.60;;;;;;5085296;28;19919;-82
2022/06/23 06:18:08;;;;;;;;;;;22.50;60.40;;;;;;5085492;28;19984;-82
2022/06/23 06:20:35;;;;;;;;;;;22.50;60.30;;;;;;5103002;28;20223;-81
2022/06/23 06:23:04;;;;;;;;;;;22.50;60.50;;;;;;5103939;28;20362;-82
2022/06/23 06:25:38;;;;;;;;;;;22.50;60.40;;;;;;5107638;28;19912;-82
2022/06/23 06:28:13;;;;;;;;;;;22.50;60.30;;;;;;5081948;28;19938;-83
2022/06/23 06:30:40;;;;;;;;;;;22.50;60.10;;;;;;5079960;28;20450;-82
2022/06/23 06:33:05;;;;;;;;;;;22.50;60.20;;;;;;5114562;28;19915;-83
2022/06/23 06:35:36;;;;;;;;;;;22.40;60.30;;;;;;5114682;28;19908;-82
2022/06/23 06:38:22;;;;;;;;;;;22.40;60.20;;;;;;5113982;28;19912;-80
2022/06/23 06:40:50;;;;;;;;;;;22.40;60.30;;;;;;5109667;28;19926;-82
2022/06/23 06:43:18;;;;;;;;;;;22.30;60.60;;;;;;5086797;28;20353;-83
2022/06/23 06:45:44;;;;;;;;;;;22.30;60.40;;;;;;5068582;28;19924;-83
2022/06/23 06:48:13;;;;;;;;;;;22.30;60.40;;;;;;5101500;28;19912;-82
2022/06/23 06:50:47;;;;;;;;;;;22.30;60.30;;;;;;5085686;28;19927;-81
2022/06/23 06:53:19;;;;;;;;;;;22.30;60.90;;;;;;5085002;28;19919;-79
2022/06/23 06:55:48;;;;;;;;;;;22.30;60.70;;;;;;5083919;28;19973;-84
2022/06/23 06:58:20;;;;;;;;;;;22.30;60.80;;;;;;5104545;28;19908;-81
2022/06/23 07:00:49;;;;;;;;;;;22.30;60.80;;;;;;5102125;28;19916;-83
2022/06/23 07:03:16;;;;;;;;;;;22.30;60.90;;;;;;5089063;28;19976;-82
2022/06/23 07:05:46;;;;;;;;;;;22.20;60.70;;;;;;5106112;28;20357;-81
2022/06/23 07:08:15;;;;;;;;;;;22.30;60.80;;;;;;5085081;28;19923;-84
2022/06/23 07:10:48;;;;;;;;;;;22.30;60.90;;;;;;5102074;28;20263;-79
2022/06/23 07:13:34;;;;;;;;;;;22.30;60.80;;;;;;5113688;28;19914;-81
2022/06/23 07:16:05;;;;;;;;;;;22.40;60.80;;;;;;5129084;27;19961;-79
2022/06/23 07:18:37;;;;;;;;;;;22.40;60.80;;;;;;5107981;28;19908;-80
2022/06/23 07:21:07;;;;;;;;;;;22.40;60.80;;;;;;5096720;28;19912;-82
2022/06/23 07:23:38;;;;;;;;;;;22.40;60.40;;;;;;5090933;28;20315;-72
2022/06/23 07:26:23;;;;;;;;;;;22.40;61.50;;;;;;5095388;28;20269;-72
2022/06/23 07:28:52;;;;;;;;;;;22.40;61.30;;;;;;5042929;28;19959;-72
2022/06/23 07:31:25;;;;;;;;;;;22.50;61.30;;;;;;5074217;28;20018;-74
2022/06/23 07:33:57;;;;;;;;;;;22.60;61.20;;;;;;5075603;28;20346;-74
2022/06/23 07:36:42;;;;;;;;;;;22.70;60.70;;;;;;5075437;28;19912;-72
2022/06/23 07:39:14;;;;;;;;;;;22.90;60.50;;;;;;5075700;28;20292;-73
2022/06/23 07:41:46;;;;;;;;;;;23.00;60.40;;;;;;5075786;28;20424;-71
2022/06/23 07:44:17;;;;;;;;;;;23.10;60.30;;;;;;5094052;28;19908;-73
2022/06/23 07:46:42;;;;;;;;;;;23.20;60.00;;;;;;5075567;28;20368;-73
2022/06/23 07:49:08;;;;;;;;;;;23.30;59.50;;;;;;5093478;28;19916;-73
2022/06/23 07:51:35;;;;;;;;;;;23.40;59.50;;;;;;5097502;28;20414;-73
2022/06/23 07:54:00;;;;;;;;;;;23.50;59.30;;;;;;5080146;28;20369;-72
2022/06/23 07:56:27;;;;;;;;;;;23.60;59.20;;;;;;5080129;28;19908;-75
2022/06/23 07:58:56;;;;;;;;;;;23.70;58.80;;;;;;5097817;28;19908;-73
2022/06/23 08:01:25;;;;;;;;;;;23.90;58.60;;;;;;5079732;28;19915;-73
2022/06/23 08:04:09;;;;;;;;;;;23.90;58.40;;;;;;5080089;28;20337;-73
2022/06/23 08:06:35;;;;;;;;;;;24.00;58.30;;;;;;5097770;28;20271;-72
2022/06/23 08:09:04;;;;;;;;;;;24.10;58.20;;;;;;5079600;28;19912;-74
2022/06/23 08:14:50;;;;;;;;;;;24.20;58.10;;;;;;5098091;28;19934;-73
2022/06/23 08:17:17;;;;;;;;;;;24.20;58.00;;;;;;5015269;28;20021;-72
2022/06/23 08:19:45;;;;;;;;;;;24.30;58.00;;;;;;5080740;28;19915;-70
2022/06/23 08:22:32;;;;;;;;;;;24.30;58.10;;;;;;5079442;28;20246;-73
2022/06/23 08:25:00;;;;;;;;;;;24.40;58.10;;;;;;5079393;28;19912;-73
2022/06/23 08:27:28;;;;;;;;;;;24.40;58.00;;;;;;5079163;28;19912;-73
2022/06/23 08:30:07;;;;;;;;;;;24.40;58.20;;;;;;5075720;28;19928;-72
2022/06/23 08:32:33;;;;;;;;;;;24.40;57.80;;;;;;5077177;28;19912;-73
2022/06/23 08:35:02;;;;;;;;;;;24.40;57.70;;;;;;5075344;28;19970;-72
2022/06/23 08:37:31;;;;;;;;;;;24.40;57.90;;;;;;5075453;28;20453;-72
2022/06/23 08:39:59;;;;;;;;;;;24.40;57.70;;;;;;5076016;28;19919;-73
2022/06/23 08:42:34;;;;;;;;;;;24.40;57.70;;;;;;5076836;28;20002;-73
2022/06/23 08:45:12;;;;;;;;;;;24.40;57.70;;;;;;5075507;28;20327;-74
2022/06/23 08:47:47;;;;;;;;;;;24.50;57.70;;;;;;5077410;28;19954;-73
2022/06/23 08:50:33;;;;;;;;;;;24.50;57.50;;;;;;5076843;28;19942;-72
2022/06/23 08:53:03;;;;;;;;;;;24.50;57.50;;;;;;5075269;28;19913;-72
2022/06/23 08:56:01;;;;;;;;;;;24.50;57.20;;;;;;5076431;28;20273;-73
2022/06/23 08:58:33;;;;;;;;;;;24.40;57.20;;;;;;5064195;28;19908;-73
2022/06/23 09:01:02;;;;;;;;;;;24.40;57.30;;;;;;5074804;28;19912;-72
2022/06/23 09:03:27;;;;;;;;;;;24.20;57.20;;;;;;5076256;28;19966;-73
2022/06/23 09:06:02;;;;;;;;;;;24.20;57.50;;;;;;5076301;28;19913;-73
2022/06/23 09:08:47;;;;;;;;;;;24.10;57.50;;;;;;5075072;28;19966;-73
2022/06/23 09:11:17;;;;;;;;;;;24.10;57.70;;;;;;5072086;28;19912;-74
2022/06/23 09:13:55;;;;;;;;;;;24.10;57.70;;;;;;5076036;28;19970;-71
2022/06/23 09:16:35;;;;;;;;;;;24.20;57.70;;;;;;5074750;28;19909;-71
2022/06/23 09:19:17;;;;;;;;;;;24.40;57.50;;;;;;5076299;28;19908;-73
2022/06/23 09:22:02;;;;;;;;;;;24.40;57.30;;;;;;5076133;28;20283;-73
2022/06/23 09:24:36;;;;;;;;;;;24.50;57.10;;;;;;5074932;28;19922;-73
2022/06/23 09:27:05;;;;;;;;;;;24.60;57.20;;;;;;5074524;28;19916;-73
2022/06/23 09:29:49;;;;;;;;;;;24.60;56.80;;;;;;5088598;28;19921;-72
2022/06/23 09:32:34;;;;;;;;;;;24.70;56.80;;;;;;5078079;28;20401;-73
2022/06/23 09:35:11;;;;;;;;;;;24.70;56.70;;;;;;5077880;28;19908;-73
2022/06/23 09:37:49;;;;;;;;;;;24.70;56.60;;;;;;5096561;28;19909;-73
2022/06/23 09:40:33;;;;;;;;;;;24.60;56.90;;;;;;5078335;28;19908;-73
2022/06/23 09:43:14;;;;;;;;;;;24.40;57.20;;;;;;5095973;28;19908;-74
2022/06/23 09:46:04;;;;;;;;;;;24.30;57.40;;;;;;5095481;28;20428;-75
2022/06/23 09:48:36;;;;;;;;;;;24.20;57.50;;;;;;5095617;28;20011;-73
2022/06/23 09:51:19;;;;;;;;;;;24.10;57.90;;;;;;5077578;28;19920;-73
2022/06/23 09:53:50;;;;;;;;;;;24.10;57.60;;;;;;5077626;28;19919;-72
2022/06/23 09:56:28;;;;;;;;;;;24.10;57.70;;;;;;5095235;28;20370;-73
2022/06/23 09:58:53;;;;;;;;;;;24.20;57.60;;;;;;5095554;28;19908;-71
2022/06/23 10:01:28;;;;;;;;;;;24.30;57.60;;;;;;5095598;28;19954;-73
2022/06/23 10:04:05;;;;;;;;;;;24.40;57.50;;;;;;5077536;28;19915;-72
2022/06/23 10:06:46;;;;;;;;;;;24.60;57.30;;;;;;5077110;28;19963;-73
2022/06/23 10:09:28;;;;;;;;;;;24.80;57.00;;;;;;5077225;28;19921;-73
2022/06/23 10:11:53;;;;;;;;;;;25.00;56.70;;;;;;5095321;28;19912;-74
2022/06/23 10:14:31;;;;;;;;;;;25.20;56.50;;;;;;5093984;28;19915;-74
2022/06/23 10:17:09;;;;;;;;;;;25.30;56.30;;;;;;5076524;28;19915;-73
2022/06/23 10:19:34;;;;;;;;;;;25.50;56.10;;;;;;5077111;28;20266;-72
2022/06/23 10:22:03;;;;;;;;;;;25.50;55.70;;;;;;5076932;28;19915;-73
2022/06/23 10:24:28;;;;;;;;;;;25.60;55.60;;;;;;5076999;28;19996;-72
2022/06/23 10:27:14;;;;;;;;;;;25.50;55.50;;;;;;5095074;28;19910;-73
2022/06/23 10:29:46;;;;;;;;;;;25.60;55.40;;;;;;5065457;28;19977;-73
2022/06/23 10:32:26;;;;;;;;;;;25.60;55.30;;;;;;5094975;28;19919;-73
2022/06/23 10:35:11;;;;;;;;;;;25.70;56.00;;;;;;5095305;28;19951;-77
2022/06/23 10:37:55;;;;;;;;;;;25.80;55.20;;;;;;5094739;28;19908;-73
2022/06/23 10:40:43;;;;;;;;;;;25.90;55.10;;;;;;5076821;28;19912;-73
2022/06/23 10:43:27;;;;;;;;;;;25.90;55.00;;;;;;5094732;28;19908;-73
2022/06/23 10:45:59;;;;;;;;;;;26.00;54.80;;;;;;5094752;28;19912;-73
2022/06/23 10:48:30;;;;;;;;;;;26.00;54.60;;;;;;5094408;28;19951;-72
2022/06/23 10:50:58;;;;;;;;;;;26.00;54.60;;;;;;5094323;28;19912;-74
2022/06/23 10:53:35;;;;;;;;;;;26.00;54.40;;;;;;5094770;28;20003;-73
2022/06/23 10:56:01;;;;;;;;;;;25.80;54.50;;;;;;5094520;28;19908;-74
2022/06/23 10:58:38;;;;;;;;;;;25.60;54.60;;;;;;5094352;28;20296;-73
2022/06/23 11:01:22;;;;;;;;;;;25.50;54.80;;;;;;5094364;28;19908;-74
2022/06/23 11:04:07;;;;;;;;;;;25.40;55.10;;;;;;5076283;28;19912;-74
2022/06/23 11:06:32;;;;;;;;;;;25.20;55.20;;;;;;5094449;28;19908;-73
2022/06/23 11:09:04;;;;;;;;;;;25.10;55.40;;;;;;5093976;28;19965;-72
2022/06/23 11:11:52;;;;;;;;;;;25.00;55.50;;;;;;5094657;28;20049;-73
2022/06/23 11:14:36;;;;;;;;;;;25.00;55.70;;;;;;5076479;28;20014;-73
2022/06/23 11:17:14;;;;;;;;;;;24.90;56.00;;;;;;5075859;28;20312;-74
2022/06/23 11:19:40;;;;;;;;;;;24.90;56.10;;;;;;5076476;28;19912;-73
2022/06/23 11:22:08;;;;;;;;;;;24.80;56.40;;;;;;5075949;28;19977;-74
2022/06/23 11:24:50;;;;;;;;;;;24.80;56.70;;;;;;5093932;28;19908;-73
2022/06/23 11:27:15;;;;;;;;;;;24.80;56.80;;;;;;5094386;28;19951;-72
2022/06/23 11:29:59;;;;;;;;;;;24.80;56.80;;;;;;5094014;28;19963;-73
2022/06/23 11:32:25;;;;;;;;;;;24.70;57.80;;;;;;5075984;28;19912;-72
2022/06/23 11:35:15;;;;;;;;;;;24.70;57.20;;;;;;5094273;28;20377;-73
2022/06/23 11:37:44;;;;;;;;;;;24.70;57.50;;;;;;5076014;28;20003;-74
2022/06/23 11:40:12;;;;;;;;;;;24.60;57.70;;;;;;5093845;28;19914;-72
2022/06/23 11:42:56;;;;;;;;;;;24.60;58.20;;;;;;5094106;28;19908;-74
2022/06/23 11:45:31;;;;;;;;;;;24.50;57.40;;;;;;5075815;28;19958;-73
2022/06/23 11:48:05;;;;;;;;;;;24.60;57.30;;;;;;5076137;28;19908;-73
2022/06/23 11:50:47;;;;;;;;;;;24.60;57.20;;;;;;5075544;28;19912;-72
2022/06/23 11:53:18;;;;;;;;;;;24.70;57.00;;;;;;5075731;28;19908;-73
2022/06/23 11:55:48;;;;;;;;;;;24.70;57.00;;;;;;5093917;28;19912;-73
2022/06/23 11:58:31;;;;;;;;;;;24.90;57.00;;;;;;5075783;28;19944;-73
2022/06/23 12:00:56;;;;;;;;;;;25.00;57.10;;;;;;5075858;28;19939;-74
2022/06/23 12:03:37;;;;;;;;;;;25.10;56.80;;;;;;5075453;28;19908;-72
2022/06/23 12:06:09;;;;;;;;;;;25.20;57.00;;;;;;5094151;28;19916;-74
2022/06/23 12:08:53;;;;;;;;;;;25.30;56.60;;;;;;5093713;28;19912;-72
2022/06/23 12:11:18;;;;;;;;;;;25.50;56.60;;;;;;5075368;28;20357;-72
2022/06/23 12:13:44;;;;;;;;;;;25.60;56.40;;;;;;5075273;28;19917;-70
2022/06/23 12:16:10;;;;;;;;;;;25.80;56.20;;;;;;5093460;28;20437;-73
2022/06/23 12:18:40;;;;;;;;;;;25.90;55.80;;;;;;5093728;28;19908;-73
2022/06/23 12:21:25;;;;;;;;;;;26.00;55.50;;;;;;5093690;28;19909;-72
2022/06/23 12:24:07;;;;;;;;;;;26.10;55.20;;;;;;5075596;28;19908;-73
2022/06/23 12:26:36;;;;;;;;;;;26.20;55.10;;;;;;5093865;28;19918;-76
2022/06/23 12:29:05;;;;;;;;;;;26.30;54.90;;;;;;5093362;28;20408;-74
2022/06/23 12:31:49;;;;;;;;;;;26.40;54.80;;;;;;5093810;28;19965;-74
2022/06/23 12:34:33;;;;;;;;;;;26.60;54.70;;;;;;5093717;28;20266;-76
2022/06/23 12:36:58;;;;;;;;;;;26.70;54.50;;;;;;5095813;28;19908;-77
2022/06/23 12:39:36;;;;;;;;;;;26.90;54.30;;;;;;5078892;28;19962;-75
2022/06/23 12:42:25;;;;;;;;;;;27.00;54.10;;;;;;5097276;28;19908;-74
2022/06/23 12:45:20;;;;;;;;;;;27.10;53.80;;;;;;5096666;28;19951;-74
2022/06/23 12:47:48;;;;;;;;;;;27.20;53.70;;;;;;5079374;28;19912;-74
2022/06/23 12:50:40;;;;;;;;;;;27.30;53.60;;;;;;5078596;28;20003;-73
2022/06/23 12:53:25;;;;;;;;;;;27.30;53.40;;;;;;5092410;28;19919;-74
2022/06/23 12:55:50;;;;;;;;;;;27.30;53.30;;;;;;5097074;28;20251;-75
2022/06/23 12:58:19;;;;;;;;;;;27.30;53.30;;;;;;5096791;28;19908;-76
2022/06/23 13:00:45;;;;;;;;;;;27.40;53.30;;;;;;5078912;28;20370;-75
2022/06/23 13:03:16;;;;;;;;;;;27.50;53.30;;;;;;5096695;28;19915;-75
2022/06/23 13:05:51;;;;;;;;;;;27.60;53.10;;;;;;5096659;28;19908;-75
2022/06/23 13:08:16;;;;;;;;;;;27.70;53.00;;;;;;5096470;28;19977;-75
2022/06/23 13:10:48;;;;;;;;;;;27.70;52.70;;;;;;5096431;28;20362;-74
2022/06/23 13:13:18;;;;;;;;;;;27.70;52.50;;;;;;5078289;28;19916;-74
2022/06/23 13:15:47;;;;;;;;;;;27.70;52.50;;;;;;5078091;28;19912;-75
2022/06/23 13:18:16;;;;;;;;;;;27.70;52.50;;;;;;5077908;28;19991;-75
2022/06/23 13:21:05;;;;;;;;;;;27.70;52.70;;;;;;5097133;28;19952;-75
2022/06/23 13:23:38;;;;;;;;;;;27.80;52.80;;;;;;5085259;28;19915;-75
2022/06/23 13:26:10;;;;;;;;;;;27.90;52.60;;;;;;5078235;28;19908;-75
2022/06/23 13:28:37;;;;;;;;;;;28.10;52.40;;;;;;5096244;28;19969;-75
2022/06/23 13:31:21;;;;;;;;;;;28.20;52.30;;;;;;5078081;28;20358;-73
2022/06/23 13:33:49;;;;;;;;;;;28.40;52.30;;;;;;5096012;28;19915;-72
2022/06/23 13:36:15;;;;;;;;;;;28.80;52.00;;;;;;5077784;28;19919;-73
2022/06/23 13:38:54;;;;;;;;;;;29.10;51.50;;;;;;5077632;28;19908;-73
2022/06/23 13:41:27;;;;;;;;;;;29.40;51.40;;;;;;5077257;28;19908;-74
2022/06/23 13:44:11;;;;;;;;;;;30.00;51.30;;;;;;5096237;28;19908;-73
2022/06/23 13:46:39;;;;;;;;;;;30.70;50.70;;;;;;5095360;28;20006;-75
2022/06/23 13:49:24;;;;;;;;;;;31.50;50.10;;;;;;5077233;28;19922;-75
2022/06/23 13:52:01;;;;;;;;;;;32.00;49.00;;;;;;5077300;28;19908;-74
2022/06/23 13:54:26;;;;;;;;;;;32.60;48.70;;;;;;5077460;28;19923;-70
2022/06/23 13:57:07;;;;;;;;;;;32.90;48.00;;;;;;5095386;28;19908;-75
2022/06/23 13:59:39;;;;;;;;;;;33.00;48.20;;;;;;5077580;28;19950;-72
2022/06/23 14:02:08;;;;;;;;;;;33.20;48.80;;;;;;5095324;28;20099;-75
2022/06/23 14:04:35;;;;;;;;;;;33.60;47.80;;;;;;5095681;28;19915;-71
2022/06/23 14:07:00;;;;;;;;;;;33.90;47.10;;;;;;5095359;28;19908;-75
2022/06/23 14:09:29;;;;;;;;;;;34.20;47.50;;;;;;5077350;28;19923;-74
2022/06/23 14:11:57;;;;;;;;;;;34.30;46.80;;;;;;5077260;28;20247;-76
2022/06/23 14:14:27;;;;;;;;;;;34.50;46.80;;;;;;5076826;28;19908;-74
2022/06/23 14:17:02;;;;;;;;;;;34.80;47.20;;;;;;5095523;28;19908;-74
2022/06/23 14:19:39;;;;;;;;;;;35.20;46.60;;;;;;5095460;28;19912;-74
2022/06/23 14:22:16;;;;;;;;;;;35.60;47.00;;;;;;5094821;28;19908;-72
2022/06/23 14:24:48;;;;;;;;;;;35.90;45.60;;;;;;5095271;28;20269;-75
2022/06/23 14:27:23;;;;;;;;;;;35.70;45.00;;;;;;5094929;28;19909;-72
2022/06/23 14:29:51;;;;;;;;;;;35.20;44.60;;;;;;5094694;28;19924;-74
2022/06/23 14:32:21;;;;;;;;;;;34.70;44.90;;;;;;5094805;28;19995;-75
2022/06/23 14:34:56;;;;;;;;;;;34.50;46.20;;;;;;5094771;28;20251;-75
2022/06/23 14:37:21;;;;;;;;;;;34.70;46.00;;;;;;5094384;28;19908;-75
2022/06/23 14:40:00;;;;;;;;;;;34.60;45.60;;;;;;5094979;28;19954;-74
2022/06/23 14:42:26;;;;;;;;;;;34.30;45.50;;;;;;5077038;28;19935;-75
2022/06/23 14:44:57;;;;;;;;;;;33.80;45.60;;;;;;5094999;28;19912;-73
2022/06/23 14:47:23;;;;;;;;;;;33.30;45.70;;;;;;5094326;28;19908;-73
2022/06/23 14:50:07;;;;;;;;;;;32.80;46.00;;;;;;5094547;28;19916;-73
2022/06/23 14:52:42;;;;;;;;;;;32.20;46.10;;;;;;5094526;28;19986;-74
2022/06/23 14:55:13;;;;;;;;;;;31.70;46.50;;;;;;5094667;28;19927;-73
2022/06/23 14:57:53;;;;;;;;;;;31.20;47.10;;;;;;5076495;28;20350;-74
2022/06/23 15:00:21;;;;;;;;;;;30.80;47.40;;;;;;5094056;28;19962;-74